Williamsburg, Michigan
Current Conditions -  °F | °C
As of 8:53 AM on Sunday 25 Jan 2015 (Local Time) from KTVC Reporting Station
Broken Clouds Broken Clouds  
Wind Chill: -2°   Ceiling: 15000
Heat Index:   Visibility: 10mi
Dew Point:   Wind: 7mph
Humidity: 77%   Direction: 80°E
Pressure: 29.97"   Gusts: NA
Location:  44.77°N, 85.4°W
Report Text: KTVC 251353Z 08006KT 10SM FEW022 SCT110 BKN150 M13/M16 A2997 RMK AO2 SLP161 T11281161
Loading
Personal Weather Stations






























Interactive Weather Map New forecast layout! Learn more

10-Day Weather Forecast

Advertisements
Track Severe Weather on mobile